Time;durP1;ratioP1;P1;durP2;ratioP2;P2;SDS_P1;SDS_P2;PMS_P1;PMS_P2;Temp;Humidity;BMP_temperature;BMP_pressure;BME280_temperature;BME280_humidity;BME280_pressure;Samples;Min_cycle;Max_cycle;Signal;HPM_P1;HPM_P2
2022/01/07 00:01:10;;;;;;;11.50;9.45;;;;;;;-2.79;100.00;96082.53;5070673;28;25185;-72
2022/01/07 00:03:38;;;;;;;11.20;9.23;;;;;;;-2.67;100.00;96095.13;5070977;28;24423;-72
2022/01/07 00:06:04;;;;;;;9.88;8.25;;;;;;;-2.50;100.00;96097.56;5070561;28;24484;-72
2022/01/07 00:08:31;;;;;;;17.38;7.93;;;;;;;-2.41;100.00;96091.56;5070612;28;24422;-72
2022/01/07 00:10:58;;;;;;;11.80;7.85;;;;;;;-2.42;100.00;96090.75;5070784;28;24407;-72
2022/01/07 00:13:25;;;;;;;11.15;8.13;;;;;;;-2.40;100.00;96091.59;5070600;28;24452;-72
2022/01/07 00:15:53;;;;;;;11.63;7.47;;;;;;;-2.52;100.00;96089.09;5070482;28;24423;-72
2022/01/07 00:18:20;;;;;;;10.85;6.57;;;;;;;-2.54;100.00;96084.06;5070857;28;24518;-72
2022/01/07 00:20:48;;;;;;;12.18;6.78;;;;;;;-2.46;100.00;96081.47;5070401;28;24849;-72
2022/01/07 00:23:14;;;;;;;21.38;14.00;;;;;;;-2.76;100.00;96077.44;5070391;28;24808;-72
2022/01/07 00:25:41;;;;;;;11.30;7.60;;;;;;;-2.89;100.00;96069.09;5069584;28;24464;-72
2022/01/07 00:28:07;;;;;;;12.38;6.85;;;;;;;-2.89;100.00;96071.63;5070596;28;24422;-72
2022/01/07 00:30:35;;;;;;;15.23;10.63;;;;;;;-2.70;100.00;96062.22;5070572;28;24484;-72
2022/01/07 00:33:01;;;;;;;12.88;8.25;;;;;;;-2.64;100.00;96063.84;5070320;28;24422;-72
2022/01/07 00:35:28;;;;;;;9.70;6.70;;;;;;;-2.61;100.00;96061.28;5070146;28;24427;-72
2022/01/07 00:37:55;;;;;;;14.30;6.22;;;;;;;-2.61;100.00;96052.00;5070367;28;24426;-72
2022/01/07 00:40:24;;;;;;;15.30;9.35;;;;;;;-2.55;100.00;96057.03;5070370;28;24414;-72
2022/01/07 00:42:51;;;;;;;9.93;8.18;;;;;;;-2.57;100.00;96062.94;5070422;28;24411;-72
2022/01/07 00:45:18;;;;;;;11.65;7.10;;;;;;;-2.65;100.00;96057.09;5070413;28;24451;-73
2022/01/07 00:47:45;;;;;;;10.48;7.18;;;;;;;-2.91;100.00;96053.03;5069980;28;24426;-73
2022/01/07 00:50:14;;;;;;;16.73;9.40;;;;;;;-2.98;100.00;96053.91;5070374;28;24527;-72
2022/01/07 00:52:40;;;;;;;9.95;6.45;;;;;;;-2.94;100.00;96058.13;5070181;28;24437;-72
2022/01/07 00:55:09;;;;;;;7.40;5.90;;;;;;;-3.06;100.00;96053.13;5070246;28;24527;-72
2022/01/07 00:57:36;;;;;;;8.03;5.33;;;;;;;-2.89;100.00;96053.00;5069498;28;24960;-72
2022/01/07 01:00:05;;;;;;;10.75;5.68;;;;;;;-2.76;100.00;96042.78;5070179;28;24476;-72
2022/01/07 01:02:31;;;;;;;7.65;5.72;;;;;;;-2.74;100.00;96043.63;5069935;28;24446;-72
2022/01/07 01:04:58;;;;;;;10.52;7.13;;;;;;;-2.60;100.00;96040.16;5070082;28;24423;-72
2022/01/07 01:07:24;;;;;;;8.65;6.72;;;;;;;-2.71;100.00;96036.03;5069788;28;24410;-72
2022/01/07 01:09:51;;;;;;;8.82;6.93;;;;;;;-2.61;100.00;96031.69;5069804;28;24956;-72
2022/01/07 01:12:18;;;;;;;9.65;6.05;;;;;;;-2.56;100.00;96029.13;5070182;28;24414;-72
2022/01/07 01:14:45;;;;;;;6.90;5.15;;;;;;;-2.46;100.00;96026.50;5070073;28;24430;-72
2022/01/07 01:17:11;;;;;;;6.68;5.38;;;;;;;-2.48;100.00;96030.78;5069647;28;24472;-72
2022/01/07 01:19:38;;;;;;;7.63;5.13;;;;;;;-2.58;100.00;96024.06;5069939;28;24426;-72
2022/01/07 01:22:05;;;;;;;10.32;5.45;;;;;;;-2.65;100.00;96034.28;5069710;28;24445;-72
2022/01/07 01:24:32;;;;;;;7.82;5.15;;;;;;;-3.01;100.00;96026.88;5069764;28;24430;-72
2022/01/07 01:26:58;;;;;;;9.63;5.38;;;;;;;-3.28;100.00;96030.41;5069922;28;24473;-73
2022/01/07 01:29:26;;;;;;;9.13;5.25;;;;;;;-3.45;100.00;96038.13;5069937;28;24423;-73
2022/01/07 01:31:53;;;;;;;8.15;5.03;;;;;;;-3.53;100.00;96037.28;5069794;28;24415;-73
2022/01/07 01:34:20;;;;;;;8.77;5.05;;;;;;;-3.53;100.00;96038.97;5069535;28;24422;-72
2022/01/07 01:36:46;;;;;;;5.95;4.63;;;;;;;-3.31;100.00;96029.59;5069827;28;24415;-72
2022/01/07 01:39:13;;;;;;;6.23;4.77;;;;;;;-3.14;100.00;96025.28;5073539;28;24467;-72
2022/01/07 01:41:40;;;;;;;7.75;4.82;;;;;;;-3.02;100.00;96014.25;5073508;28;24445;-72
2022/01/07 01:44:07;;;;;;;6.57;4.35;;;;;;;-2.87;100.00;96016.69;5073044;28;24426;-72
2022/01/07 01:46:35;;;;;;;7.38;4.80;;;;;;;-2.87;100.00;96014.13;5073316;28;24415;-72
2022/01/07 01:49:02;;;;;;;6.57;4.35;;;;;;;-3.07;100.00;96010.91;5073506;28;24430;-72
2022/01/07 01:51:29;;;;;;;8.60;4.78;;;;;;;-3.17;100.00;95997.44;5073482;28;24422;-72
2022/01/07 01:53:55;;;;;;;7.85;4.45;;;;;;;-3.19;100.00;96007.59;5073451;28;24426;-72
2022/01/07 01:56:22;;;;;;;6.45;4.20;;;;;;;-3.22;100.00;96015.22;5072918;28;24419;-72
2022/01/07 01:58:48;;;;;;;7.03;4.20;;;;;;;-3.20;100.00;96010.13;5072861;28;24422;-72
2022/01/07 02:01:15;;;;;;;4.82;3.80;;;;;;;-3.05;100.00;96012.56;5073097;28;24446;-72
2022/01/07 02:03:43;;;;;;;10.95;5.03;;;;;;;-3.13;100.00;96013.47;5072817;28;24452;-72
2022/01/07 02:06:10;;;;;;;6.18;4.60;;;;;;;-3.16;100.00;96010.09;5072618;28;24442;-72
2022/01/07 02:08:37;;;;;;;5.75;4.50;;;;;;;-3.42;100.00;96004.31;5072998;28;24450;-72
2022/01/07 02:11:04;;;;;;;7.30;5.27;;;;;;;-3.53;100.00;96004.34;5072678;28;24451;-72
2022/01/07 02:13:30;;;;;;;8.40;4.38;;;;;;;-3.39;100.00;95995.88;5072886;28;24505;-72
2022/01/07 02:15:57;;;;;;;6.72;4.25;;;;;;;-3.52;100.00;95993.41;5072553;28;24799;-72
2022/01/07 02:18:23;;;;;;;6.43;4.53;;;;;;;-3.51;100.00;95994.25;5072697;28;24873;-73
2022/01/07 02:20:51;;;;;;;6.55;4.40;;;;;;;-3.38;100.00;95998.38;5072649;28;24789;-72
2022/01/07 02:23:19;;;;;;;5.82;4.22;;;;;;;-3.34;100.00;95996.69;5072917;28;24987;-72
2022/01/07 02:25:46;;;;;;;6.43;3.70;;;;;;;-3.23;100.00;95985.63;5072269;28;24421;-72
2022/01/07 02:28:13;;;;;;;14.90;4.50;;;;;;;-3.15;100.00;95993.22;5072577;28;24440;-72
2022/01/07 02:30:40;;;;;;;7.25;4.05;;;;;;;-3.28;100.00;95991.59;5072479;28;24827;-72
2022/01/07 02:33:06;;;;;;;6.25;4.15;;;;;;;-3.31;100.00;95997.50;5072293;28;24983;-72
2022/01/07 02:35:35;;;;;;;7.03;4.43;;;;;;;-3.47;100.00;95980.72;5072370;28;24433;-72
2022/01/07 02:38:03;;;;;;;10.88;4.50;;;;;;;-3.24;100.00;95978.91;5072542;28;24419;-73
2022/01/07 02:40:30;;;;;;;6.03;3.88;;;;;;;-3.12;100.00;95977.97;5072425;28;24776;-72
2022/01/07 02:42:57;;;;;;;6.55;4.20;;;;;;;-3.21;100.00;95985.66;5072252;28;24443;-72
2022/01/07 02:45:23;;;;;;;6.93;3.90;;;;;;;-3.16;100.00;95978.84;5072044;28;24414;-72
2022/01/07 02:47:53;;;;;;;7.15;3.53;;;;;;;-3.12;100.00;95974.59;5072319;28;24472;-72
2022/01/07 02:50:23;;;;;;;4.78;3.75;;;;;;;-3.22;100.00;95982.28;5072001;28;24784;-72
2022/01/07 02:52:50;;;;;;;6.47;3.87;;;;;;;-3.38;100.00;95977.28;5071849;28;24434;-72
2022/01/07 02:55:18;;;;;;;6.53;4.30;;;;;;;-3.42;100.00;95979.00;5071969;28;25090;-72
2022/01/07 02:57:45;;;;;;;8.30;4.25;;;;;;;-3.28;100.00;95981.47;5071350;28;24472;-72
2022/01/07 03:00:14;;;;;;;9.00;4.60;;;;;;;-3.30;100.00;95986.56;5072029;28;24847;-72
2022/01/07 03:02:41;;;;;;;7.03;4.32;;;;;;;-3.50;100.00;95984.09;5071909;28;24442;-73
2022/01/07 03:05:08;;;;;;;8.88;4.00;;;;;;;-3.57;100.00;95981.59;5071896;28;24514;-73
2022/01/07 03:07:35;;;;;;;7.03;4.10;;;;;;;-3.53;100.00;95986.63;5071787;28;24426;-72
2022/01/07 03:10:02;;;;;;;6.53;4.38;;;;;;;-3.64;100.00;95983.31;5071569;28;24422;-72
2022/01/07 03:12:29;;;;;;;5.82;4.25;;;;;;;-3.63;100.00;95981.63;5071718;28;24422;-72
2022/01/07 03:14:56;;;;;;;7.93;4.60;;;;;;;-3.67;100.00;95993.44;5071651;28;24422;-72
2022/01/07 03:17:23;;;;;;;7.18;3.83;;;;;;;-3.63;100.00;95989.22;5071564;28;24476;-71
2022/01/07 03:19:49;;;;;;;7.30;4.28;;;;;;;-3.67;100.00;95989.25;5071904;28;24423;-71
2022/01/07 03:22:16;;;;;;;9.48;4.13;;;;;;;-3.70;100.00;95980.81;5071232;28;24987;-72
2022/01/07 03:24:42;;;;;;;9.50;4.40;;;;;;;-3.73;100.00;95979.16;5071381;28;24498;-72
2022/01/07 03:27:08;;;;;;;5.90;3.90;;;;;;;-3.68;100.00;95985.00;5071231;28;24472;-72
2022/01/07 03:29:36;;;;;;;7.63;4.10;;;;;;;-3.69;100.00;95975.75;5071365;28;24468;-72
2022/01/07 03:32:04;;;;;;;10.30;3.95;;;;;;;-3.73;100.00;95969.03;5071581;28;24411;-72
2022/01/07 03:34:30;;;;;;;8.80;3.85;;;;;;;-3.72;100.00;95974.91;5071225;28;24415;-72
2022/01/07 03:36:57;;;;;;;7.90;4.05;;;;;;;-3.80;100.00;95977.47;5070997;28;24468;-72
2022/01/07 03:39:23;;;;;;;7.22;4.18;;;;;;;-3.90;100.00;95971.59;5071131;28;24415;-72
2022/01/07 03:41:50;;;;;;;5.97;3.75;;;;;;;-3.80;100.00;95964.81;5070924;28;24442;-72
2022/01/07 03:44:16;;;;;;;5.73;4.13;;;;;;;-3.85;100.00;95976.66;5071205;28;24460;-72
2022/01/07 03:46:44;;;;;;;5.05;3.60;;;;;;;-3.67;100.00;95969.00;5071320;28;24426;-73
2022/01/07 03:49:10;;;;;;;8.95;4.07;;;;;;;-3.80;100.00;95979.16;5071015;28;24476;-72
2022/01/07 03:51:37;;;;;;;5.88;3.70;;;;;;;-3.56;100.00;95973.16;5071186;28;24419;-71
2022/01/07 03:54:04;;;;;;;7.10;3.93;;;;;;;-3.66;100.00;95977.44;5071100;28;24453;-72
2022/01/07 03:56:30;;;;;;;5.50;3.78;;;;;;;-3.52;100.00;95973.16;5070500;28;24994;-72
2022/01/07 03:58:58;;;;;;;7.32;3.50;;;;;;;-3.30;100.00;95965.41;5070506;28;24473;-72
2022/01/07 04:01:24;;;;;;;12.60;3.70;;;;;;;-3.46;100.00;95972.25;5070085;28;24418;-72
2022/01/07 04:03:52;;;;;;;7.30;3.80;;;;;;;-3.56;100.00;95963.91;5070721;28;25251;-72
2022/01/07 04:06:20;;;;;;;10.38;3.50;;;;;;;-3.55;100.00;95968.09;5064788;28;24999;-72
2022/01/07 04:08:47;;;;;;;5.82;3.25;;;;;;;-3.46;100.00;95964.66;5059683;28;24435;-72
2022/01/07 04:11:14;;;;;;;5.90;3.40;;;;;;;-3.63;100.00;95962.25;5070623;28;24510;-72
2022/01/07 04:13:40;;;;;;;5.40;3.53;;;;;;;-3.73;100.00;95970.72;5070646;28;24410;-72
2022/01/07 04:16:07;;;;;;;6.20;3.40;;;;;;;-3.85;100.00;95973.28;5061492;28;24435;-72
2022/01/07 04:18:34;;;;;;;4.82;3.10;;;;;;;-3.88;100.00;95968.25;5058040;28;24438;-72
2022/01/07 04:21:02;;;;;;;5.97;3.55;;;;;;;-3.63;100.00;95966.44;5061744;28;25003;-72
2022/01/07 04:23:28;;;;;;;5.13;3.53;;;;;;;-3.50;100.00;95965.53;5070231;28;24513;-72
2022/01/07 04:25:55;;;;;;;6.82;3.47;;;;;;;-3.49;100.00;95972.28;5070125;28;24414;-71
2022/01/07 04:28:21;;;;;;;4.68;3.58;;;;;;;-3.32;100.00;95972.19;5070557;28;24429;-71
2022/01/07 04:30:48;;;;;;;5.28;3.22;;;;;;;-3.45;100.00;95974.81;5063837;28;24977;-71
2022/01/07 04:33:22;;;;;;;6.63;3.15;;;;;;;-3.38;100.00;95975.59;5050268;28;24419;-71
2022/01/07 04:35:49;;;;;;;6.20;3.70;;;;;;;-3.41;100.00;95976.47;5050034;28;24522;-71
2022/01/07 04:38:17;;;;;;;4.30;3.28;;;;;;;-3.45;100.00;95979.88;5058500;28;24436;-71
2022/01/07 04:40:43;;;;;;;4.20;3.30;;;;;;;-3.42;100.00;95979.84;5067588;28;24442;-71
2022/01/07 04:43:10;;;;;;;5.32;3.47;;;;;;;-3.53;100.00;95978.22;5070413;28;24496;-71
2022/01/07 04:45:36;;;;;;;4.70;3.20;;;;;;;-3.33;100.00;95984.03;5064858;28;24439;-71
2022/01/07 04:48:04;;;;;;;4.85;3.50;;;;;;;-3.31;100.00;95986.53;5050049;28;24427;-71
2022/01/07 04:50:30;;;;;;;7.15;3.67;;;;;;;-3.29;100.00;95978.09;5050302;28;24423;-71
2022/01/07 04:52:57;;;;;;;8.07;3.80;;;;;;;-3.48;100.00;95969.75;5050027;28;24415;-72
2022/01/07 04:55:29;;;;;;;4.72;3.55;;;;;;;-3.43;100.00;95972.25;5050039;28;24478;-72
2022/01/07 04:57:56;;;;;;;5.13;3.40;;;;;;;-3.50;100.00;95965.53;5049518;28;24439;-72
2022/01/07 05:00:25;;;;;;;5.43;3.63;;;;;;;-3.50;100.00;95973.13;5039261;28;24840;-72
2022/01/07 05:02:51;;;;;;;4.77;3.60;;;;;;;-3.48;100.00;95969.75;5031525;28;24597;-71
2022/01/07 05:05:18;;;;;;;5.72;4.13;;;;;;;-3.26;100.00;95977.25;5037544;28;25023;-71
2022/01/07 05:07:45;;;;;;;8.93;4.10;;;;;;;-3.33;100.00;95968.00;5040418;28;24519;-71
2022/01/07 05:10:14;;;;;;;5.18;4.00;;;;;;;-3.27;100.00;95971.31;5037993;28;24427;-71
2022/01/07 05:12:43;;;;;;;6.07;3.70;;;;;;;-3.25;100.00;95973.84;5039528;28;24976;-71
2022/01/07 05:15:10;;;;;;;5.28;3.90;;;;;;;-3.23;100.00;95972.97;5042087;28;24889;-71
2022/01/07 05:17:37;;;;;;;5.33;4.07;;;;;;;-3.22;100.00;95964.53;5043591;28;24524;-71
2022/01/07 05:20:04;;;;;;;5.25;3.85;;;;;;;-3.35;100.00;95962.91;5053537;28;24434;-71
2022/01/07 05:22:31;;;;;;;7.97;4.30;;;;;;;-3.44;100.00;95951.16;5041894;28;24493;-71
2022/01/07 05:24:57;;;;;;;7.65;4.50;;;;;;;-3.33;100.00;95952.81;5043438;28;24431;-71
2022/01/07 05:27:24;;;;;;;7.13;4.10;;;;;;;-3.38;100.00;95957.88;5041789;28;24482;-70
2022/01/07 05:29:52;;;;;;;6.03;4.50;;;;;;;-3.21;100.00;95961.16;5041942;28;24504;-72
2022/01/07 05:32:19;;;;;;;6.18;4.13;;;;;;;-3.17;100.00;95954.38;5043329;28;24434;-73
2022/01/07 05:34:46;;;;;;;4.60;3.45;;;;;;;-3.09;100.00;95951.78;5042147;28;24459;-73
2022/01/07 05:37:12;;;;;;;6.35;3.85;;;;;;;-3.05;100.00;95954.28;5040896;28;24489;-73
2022/01/07 05:39:39;;;;;;;10.00;4.07;;;;;;;-3.08;100.00;95951.75;5043034;28;24446;-72
2022/01/07 05:42:07;;;;;;;5.38;3.58;;;;;;;-2.96;100.00;95954.22;5041811;28;24435;-73
2022/01/07 05:44:34;;;;;;;6.13;4.13;;;;;;;-3.11;100.00;95956.03;5040884;28;24431;-73
2022/01/07 05:47:01;;;;;;;6.63;3.47;;;;;;;-3.13;100.00;95950.13;5040917;28;24424;-72
2022/01/07 05:49:28;;;;;;;6.30;4.10;;;;;;;-3.16;100.00;95943.38;5042788;28;24789;-73
2022/01/07 05:51:54;;;;;;;5.20;3.80;;;;;;;-3.09;100.00;95945.03;5045703;28;24888;-72
2022/01/07 05:54:21;;;;;;;5.70;3.58;;;;;;;-3.02;100.00;95943.28;5042037;28;24447;-72
2022/01/07 05:56:47;;;;;;;6.60;3.90;;;;;;;-3.06;100.00;95939.94;5042289;28;24443;-72
2022/01/07 05:59:14;;;;;;;7.97;4.68;;;;;;;-3.25;100.00;95936.69;5043417;28;24490;-72
2022/01/07 06:01:40;;;;;;;5.57;4.10;;;;;;;-3.22;100.00;95936.69;5041725;28;24439;-72
2022/01/07 06:04:08;;;;;;;5.72;4.10;;;;;;;-3.30;100.00;95932.50;5043080;28;24477;-72
2022/01/07 06:06:34;;;;;;;8.07;4.50;;;;;;;-3.33;100.00;95930.84;5043478;28;25096;-72
2022/01/07 06:09:01;;;;;;;8.20;5.30;;;;;;;-3.35;100.00;95934.22;5041192;28;24446;-72
2022/01/07 06:11:27;;;;;;;6.10;4.47;;;;;;;-3.27;100.00;95945.16;5042561;28;24435;-71
2022/01/07 06:13:54;;;;;;;9.55;4.88;;;;;;;-3.33;100.00;95935.06;5041838;28;24816;-71
2022/01/07 06:16:20;;;;;;;6.00;4.75;;;;;;;-3.34;100.00;95934.19;5043172;28;25011;-71
2022/01/07 06:18:52;;;;;;;9.25;5.10;;;;;;;-3.34;100.00;95939.28;5043837;28;24824;-71
2022/01/07 06:21:20;;;;;;;11.82;5.50;;;;;;;-3.34;100.00;95935.91;5049924;28;24462;-71
2022/01/07 06:23:46;;;;;;;8.30;5.40;;;;;;;-3.26;100.00;95931.66;5051278;28;24889;-71
2022/01/07 06:26:13;;;;;;;6.80;5.40;;;;;;;-3.28;100.00;95925.75;5052042;28;24428;-71
2022/01/07 06:28:39;;;;;;;8.25;5.13;;;;;;;-3.36;100.00;95925.78;5052314;28;24836;-72
2022/01/07 06:31:06;;;;;;;8.95;5.85;;;;;;;-3.42;100.00;95925.81;5052421;28;24415;-72
2022/01/07 06:33:32;;;;;;;7.07;5.18;;;;;;;-3.41;100.00;95919.94;5052524;28;24944;-72
2022/01/07 06:35:59;;;;;;;6.85;5.47;;;;;;;-3.46;100.00;95924.16;5052231;28;24484;-72
2022/01/07 06:38:26;;;;;;;17.57;10.87;;;;;;;-3.36;100.00;95922.44;5052622;28;25051;-72
2022/01/07 06:40:53;;;;;;;13.40;9.10;;;;;;;-3.38;100.00;95922.41;5052271;28;25034;-72
2022/01/07 06:43:19;;;;;;;11.18;6.78;;;;;;;-3.43;100.00;95916.53;5052532;28;24443;-72
2022/01/07 06:45:46;;;;;;;6.75;5.70;;;;;;;-3.41;100.00;95922.47;5052066;28;24465;-72
2022/01/07 06:48:12;;;;;;;6.80;5.43;;;;;;;-3.38;100.00;95927.47;5047148;28;24440;-72
2022/01/07 06:50:39;;;;;;;9.57;7.22;;;;;;;-3.36;100.00;95923.25;5032611;28;24415;-71
2022/01/07 06:53:05;;;;;;;10.63;7.15;;;;;;;-3.40;100.00;95914.00;5032289;28;24419;-72
2022/01/07 06:55:33;;;;;;;11.57;7.07;;;;;;;-3.42;100.00;95911.47;5032180;28;24435;-71
2022/01/07 06:57:59;;;;;;;11.60;6.25;;;;;;;-3.43;100.00;95914.00;5032063;28;24818;-73
2022/01/07 07:00:26;;;;;;;12.23;7.15;;;;;;;-3.41;100.00;95908.09;5032364;28;24789;-72
2022/01/07 07:02:53;;;;;;;7.93;5.18;;;;;;;-3.33;100.00;95912.28;5032088;28;24447;-73
2022/01/07 07:05:20;;;;;;;5.88;4.97;;;;;;;-3.21;100.00;95905.41;5032259;28;24957;-72
2022/01/07 07:07:46;;;;;;;7.60;5.65;;;;;;;-3.23;100.00;95898.69;5032040;28;24463;-72
2022/01/07 07:10:13;;;;;;;7.67;5.50;;;;;;;-3.33;100.00;95892.84;5032096;28;24560;-71
2022/01/07 07:12:40;;;;;;;10.15;5.45;;;;;;;-3.29;100.00;95897.03;5031746;28;24474;-71
2022/01/07 07:15:07;;;;;;;8.55;5.10;;;;;;;-3.27;100.00;95897.03;5031788;28;24817;-71
2022/01/07 07:17:34;;;;;;;7.50;5.80;;;;;;;-3.29;100.00;95893.69;5031462;28;24473;-71
2022/01/07 07:20:02;;;;;;;9.15;5.53;;;;;;;-3.20;100.00;95891.91;5050704;28;24636;-71
2022/01/07 07:22:30;;;;;;;6.33;5.20;;;;;;;-3.20;100.00;95896.97;5051326;28;24535;-71
2022/01/07 07:24:57;;;;;;;9.47;5.23;;;;;;;-3.26;100.00;95889.44;5050822;28;24475;-71
2022/01/07 07:27:24;;;;;;;7.47;6.05;;;;;;;-3.19;100.00;95887.66;5034926;28;24981;-71
2022/01/07 07:29:51;;;;;;;8.70;5.68;;;;;;;-3.10;100.00;95879.19;5031266;28;24430;-71
2022/01/07 07:32:23;;;;;;;7.70;5.10;;;;;;;-3.12;100.00;95876.63;5031308;28;24427;-71
2022/01/07 07:34:59;;;;;;;8.02;5.97;;;;;;;-3.13;100.00;95876.66;5030854;28;24420;-71
2022/01/07 07:37:26;;;;;;;7.78;6.35;;;;;;;-3.02;100.00;95869.81;5031069;28;24455;-72
2022/01/07 07:39:53;;;;;;;6.85;5.57;;;;;;;-3.05;100.00;95870.66;5031322;28;24814;-71
2022/01/07 07:42:19;;;;;;;6.70;5.25;;;;;;;-3.01;100.00;95876.56;5031262;28;24424;-71
2022/01/07 07:44:46;;;;;;;8.13;5.78;;;;;;;-3.01;100.00;95868.94;5031121;28;24798;-72
2022/01/07 07:47:14;;;;;;;10.68;6.40;;;;;;;-3.00;100.00;95878.25;5030809;28;24424;-71
2022/01/07 07:49:41;;;;;;;6.80;5.88;;;;;;;-2.82;100.00;95869.63;5047297;28;24438;-72
2022/01/07 07:52:07;;;;;;;9.98;5.88;;;;;;;-2.84;100.00;95861.22;5050887;28;24493;-70
2022/01/07 07:54:34;;;;;;;7.50;5.10;;;;;;;-2.69;100.00;95861.06;5050911;28;24411;-70
2022/01/07 07:57:00;;;;;;;6.72;5.22;;;;;;;-2.70;100.00;95864.47;5050585;28;24967;-70
2022/01/07 07:59:27;;;;;;;6.97;5.20;;;;;;;-2.89;100.00;95856.19;5050487;28;24964;-71
2022/01/07 08:01:54;;;;;;;7.93;5.50;;;;;;;-2.80;100.00;95853.56;5050554;28;24423;-71
2022/01/07 08:04:21;;;;;;;7.85;5.65;;;;;;;-2.75;100.00;95848.44;5050469;28;24915;-71
2022/01/07 08:06:49;;;;;;;7.10;4.72;;;;;;;-2.95;100.00;95849.47;5050329;28;24789;-70
2022/01/07 08:09:15;;;;;;;9.25;5.60;;;;;;;-2.86;100.00;95848.53;5050584;28;24858;-70
2022/01/07 08:11:53;;;;;;;8.38;5.57;;;;;;;-2.83;100.00;95843.44;5050920;28;24788;-71
2022/01/07 08:17:06;;;;;;;7.88;5.45;;;;;;;-2.80;100.00;95842.59;5050336;28;24403;-70
2022/01/07 08:19:35;;;;;;;10.52;5.55;;;;;;;-2.86;100.00;95846.00;5050343;28;24459;-70
2022/01/07 08:22:02;;;;;;;6.50;4.97;;;;;;;-2.81;100.00;95846.00;5050444;28;24419;-71
2022/01/07 08:24:29;;;;;;;7.72;5.50;;;;;;;-2.76;100.00;95844.22;5050236;28;24443;-71
2022/01/07 08:26:55;;;;;;;7.90;5.43;;;;;;;-2.73;100.00;95839.97;5050014;28;24977;-71
2022/01/07 08:29:24;;;;;;;11.10;6.00;;;;;;;-2.72;100.00;95841.66;5044245;28;24482;-71
2022/01/07 08:34:54;;;;;;;6.53;5.50;;;;;;;-2.66;100.00;95839.94;5035415;28;24427;-71
2022/01/07 08:37:23;;;;;;;13.32;9.27;;;;;;;-2.60;100.00;95835.59;5049260;28;24635;-71
2022/01/07 08:39:49;;;;;;;17.77;11.68;;;;;;;-2.59;100.00;95836.47;5049460;28;24447;-71
2022/01/07 08:42:18;;;;;;;16.70;8.93;;;;;;;-2.54;100.00;95835.56;5063098;28;24522;-70
2022/01/07 08:44:44;;;;;;;9.50;7.07;;;;;;;-2.44;100.00;95833.78;5053391;28;24479;-71
2022/01/07 08:47:10;;;;;;;13.45;10.80;;;;;;;-2.54;100.00;95839.78;5029762;28;24438;-71
2022/01/07 08:49:38;;;;;;;8.95;7.43;;;;;;;-2.48;100.00;95834.66;5043895;28;25030;-71
2022/01/07 08:52:05;;;;;;;12.95;8.80;;;;;;;-2.48;100.00;95832.97;5050108;28;24434;-71
2022/01/07 08:54:32;;;;;;;13.50;9.27;;;;;;;-2.43;100.00;95827.81;5049812;28;24477;-71
2022/01/07 08:56:58;;;;;;;12.32;9.38;;;;;;;-2.48;100.00;95820.28;5049845;28;24426;-71
2022/01/07 08:59:24;;;;;;;10.88;9.18;;;;;;;-2.42;100.00;95823.59;5045739;28;24439;-71
2022/01/07 09:01:51;;;;;;;15.45;9.27;;;;;;;-2.48;100.00;95820.28;5040570;28;24435;-71
2022/01/07 09:04:17;;;;;;;14.60;8.50;;;;;;;-2.41;100.00;95815.97;5038227;28;25090;-71
2022/01/07 09:06:45;;;;;;;8.43;6.18;;;;;;;-2.46;100.00;95815.19;5044093;28;24438;-71
2022/01/07 09:09:12;;;;;;;8.63;5.53;;;;;;;-2.26;100.00;95814.97;5049601;28;24466;-71
2022/01/07 09:11:38;;;;;;;8.10;5.97;;;;;;;-2.14;100.00;95817.34;5050050;28;24832;-71
2022/01/07 09:14:04;;;;;;;9.43;5.05;;;;;;;-2.24;100.00;95818.31;5049362;28;24983;-71
2022/01/07 09:16:31;;;;;;;9.00;6.30;;;;;;;-2.22;100.00;95817.44;5049692;28;24643;-71
2022/01/07 09:18:58;;;;;;;9.45;6.40;;;;;;;-2.31;100.00;95826.84;5048492;28;24439;-71
2022/01/07 09:21:24;;;;;;;9.57;7.63;;;;;;;-2.27;100.00;95820.88;5049902;28;24417;-71
2022/01/07 09:23:53;;;;;;;9.05;5.60;;;;;;;-2.23;100.00;95817.44;5045438;28;24806;-71
2022/01/07 09:26:19;;;;;;;9.57;6.57;;;;;;;-2.09;100.00;95814.72;5029522;28;24482;-71
2022/01/07 09:28:45;;;;;;;7.55;6.55;;;;;;;-1.98;100.00;95817.97;5036040;28;24432;-71
2022/01/07 09:31:13;;;;;;;6.65;5.38;;;;;;;-2.07;100.00;95821.47;5048145;28;24430;-71
2022/01/07 09:33:40;;;;;;;6.38;5.03;;;;;;;-2.02;100.00;95816.34;5049572;28;24510;-71
2022/01/07 09:36:06;;;;;;;8.02;6.25;;;;;;;-2.03;100.00;95809.59;5049022;28;24968;-71
2022/01/07 09:38:33;;;;;;;13.18;9.13;;;;;;;-2.06;100.00;95807.91;5048885;28;24462;-71
2022/01/07 09:41:01;;;;;;;7.90;5.78;;;;;;;-1.85;100.00;95806.81;5049592;28;24824;-71
2022/01/07 09:43:27;;;;;;;8.95;5.85;;;;;;;-1.84;100.00;95802.56;5049536;28;24419;-71
2022/01/07 09:45:54;;;;;;;6.75;5.32;;;;;;;-1.85;100.00;95800.91;5031032;28;24439;-70
2022/01/07 09:48:20;;;;;;;5.00;4.35;;;;;;;-1.72;100.00;95807.47;5035526;28;24442;-71
2022/01/07 09:50:47;;;;;;;6.80;4.47;;;;;;;-1.70;100.00;95805.75;5070071;28;24497;-71
2022/01/07 09:53:15;;;;;;;8.88;4.65;;;;;;;-1.71;100.00;95799.84;5059253;28;24427;-72
2022/01/07 09:55:43;;;;;;;5.53;4.18;;;;;;;-1.72;100.00;95797.31;5049004;28;24872;-71
2022/01/07 09:58:13;;;;;;;4.88;4.15;;;;;;;-1.73;100.00;95796.47;5047506;28;24478;-71
2022/01/07 10:00:41;;;;;;;6.18;4.18;;;;;;;-1.71;100.00;95789.69;5036399;28;24538;-72
2022/01/07 10:03:09;;;;;;;6.57;4.30;;;;;;;-1.67;100.00;95790.44;5033526;28;24540;-73
2022/01/07 10:05:44;;;;;;;6.30;4.32;;;;;;;-1.50;100.00;95790.19;5033442;28;24451;-69
2022/01/07 10:08:19;;;;;;;6.45;4.35;;;;;;;-1.66;100.00;95789.59;5047909;28;24439;-74
2022/01/07 10:10:46;;;;;;;5.87;3.77;;;;;;;-1.67;100.00;95779.44;5033033;28;24810;-71
2022/01/07 10:13:19;;;;;;;5.25;3.75;;;;;;;-1.52;100.00;95780.09;5032687;28;24511;-72
2022/01/07 10:15:45;;;;;;;7.45;3.88;;;;;;;-1.44;100.00;95774.03;5031897;28;24486;-73
2022/01/07 10:18:14;;;;;;;5.38;3.53;;;;;;;-1.46;100.00;95776.59;5037384;28;24439;-71
2022/01/07 10:20:43;;;;;;;7.22;3.85;;;;;;;-1.38;100.00;95773.94;5072165;28;24988;-72
2022/01/07 10:23:12;;;;;;;6.13;3.53;;;;;;;-1.28;100.00;95776.28;5072525;28;24533;-71
2022/01/07 10:25:40;;;;;;;6.15;3.60;;;;;;;-1.27;100.00;95777.97;5037366;28;24448;-72
2022/01/07 10:28:09;;;;;;;7.43;3.60;;;;;;;-1.33;100.00;95774.72;5035657;28;24458;-72
2022/01/07 10:30:39;;;;;;;4.90;3.23;;;;;;;-1.41;100.00;95766.34;5049999;28;24438;-72
2022/01/07 10:33:18;;;;;;;6.35;3.35;;;;;;;-1.33;100.00;95765.38;5032845;28;24431;-72
2022/01/07 10:35:45;;;;;;;6.57;4.20;;;;;;;-1.41;100.00;95766.34;5034498;28;24522;-71
2022/01/07 10:38:16;;;;;;;9.52;6.05;;;;;;;-1.41;100.00;95757.03;5050214;28;24439;-72
2022/01/07 10:40:44;;;;;;;10.17;4.63;;;;;;;-1.45;100.00;95755.41;5072351;28;24968;-72
2022/01/07 10:43:13;;;;;;;6.03;4.30;;;;;;;-1.44;100.00;95746.09;5072302;28;24425;-72
2022/01/07 10:45:43;;;;;;;6.35;4.22;;;;;;;-1.49;100.00;95748.69;5055321;28;24455;-72
2022/01/07 10:48:10;;;;;;;5.85;4.43;;;;;;;-1.40;100.00;95748.56;5049519;28;24966;-71
2022/01/07 10:50:38;;;;;;;7.63;4.60;;;;;;;-1.28;100.00;95743.25;5051942;28;24430;-71
2022/01/07 10:53:25;;;;;;;6.57;4.57;;;;;;;-1.26;100.00;95741.53;5038998;28;24451;-70
2022/01/07 10:56:08;;;;;;;5.82;4.45;;;;;;;-1.33;100.00;95734.88;5032055;28;24411;-71
2022/01/07 10:58:56;;;;;;;7.18;4.72;;;;;;;-1.24;100.00;95732.19;5038709;28;24462;-72
2022/01/07 11:01:33;;;;;;;6.18;4.10;;;;;;;-1.02;100.00;95724.19;5046279;28;24505;-72
2022/01/07 11:04:01;;;;;;;6.38;4.55;;;;;;;-1.10;100.00;95719.22;5051861;28;24477;-72
2022/01/07 11:06:29;;;;;;;5.68;4.30;;;;;;;-0.94;100.00;95724.03;5049969;28;24431;-72
2022/01/07 11:08:57;;;;;;;6.00;4.00;;;;;;;-0.91;100.00;95722.28;5039488;28;24523;-72
2022/01/07 11:11:26;;;;;;;5.60;4.70;;;;;;;-0.90;100.00;95728.19;5051148;28;24774;-72
2022/01/07 11:13:53;;;;;;;7.07;5.60;;;;;;;-0.88;100.00;95727.31;5050139;28;24569;-72
2022/01/07 11:16:19;;;;;;;8.55;4.63;;;;;;;-0.96;100.00;95719.00;5031473;28;24532;-71
2022/01/07 11:18:50;;;;;;;6.28;4.82;;;;;;;-1.07;100.00;95716.66;5043922;28;24508;-72
2022/01/07 11:21:18;;;;;;;6.37;4.77;;;;;;;-0.95;100.00;95715.56;5067350;28;24832;-72
2022/01/07 11:23:46;;;;;;;5.80;4.38;;;;;;;-1.01;100.00;95710.59;5051084;28;24439;-72
2022/01/07 11:26:14;;;;;;;8.45;4.78;;;;;;;-1.02;100.00;95701.31;5050741;28;24458;-71
2022/01/07 11:28:56;;;;;;;9.15;5.18;;;;;;;-0.93;100.00;95708.75;5053112;28;24423;-71
2022/01/07 11:31:23;;;;;;;7.10;5.32;;;;;;;-0.90;100.00;95703.59;5050456;28;24980;-71